createdAt,value
2019-01-24T00:01:51.053Z,26.12
2019-01-24T00:04:24.206Z,24.30
2019-01-24T00:06:53.801Z,24.23
2019-01-24T00:09:23.338Z,26.10
2019-01-24T00:11:52.920Z,24.35
2019-01-24T00:14:22.541Z,30.62
2019-01-24T00:16:52.152Z,26.35
2019-01-24T00:19:21.725Z,25.10
2019-01-24T00:21:51.237Z,28.62
2019-01-24T00:24:20.780Z,26.00
2019-01-24T00:26:50.238Z,29.15
2019-01-24T00:29:19.697Z,24.50
2019-01-24T00:31:49.237Z,27.25
2019-01-24T00:34:23.244Z,26.87
2019-01-24T00:36:50.135Z,25.62
2019-01-24T00:39:19.633Z,24.72
2019-01-24T00:41:49.112Z,22.25
2019-01-24T00:44:18.593Z,23.22
2019-01-24T00:46:48.160Z,25.15
2019-01-24T00:49:17.616Z,25.52
2019-01-24T00:51:47.156Z,26.50
2019-01-24T00:54:16.621Z,25.43
2019-01-24T00:56:46.097Z,27.17
2019-01-24T00:59:15.541Z,21.80
2019-01-24T01:01:45.080Z,24.67
2019-01-24T01:04:14.601Z,28.77
2019-01-24T01:06:44.133Z,26.73
2019-01-24T01:09:13.692Z,29.15
2019-01-24T01:11:43.537Z,27.05
2019-01-24T01:14:13.084Z,24.12
2019-01-24T01:16:43.027Z,28.15
2019-01-24T01:19:12.653Z,30.48
2019-01-24T01:21:41.869Z,27.67
2019-01-24T01:24:11.674Z,27.70
2019-01-24T01:26:41.235Z,29.00
2019-01-24T01:29:10.857Z,34.03
2019-01-24T01:31:40.312Z,25.48
2019-01-24T01:34:10.225Z,31.73
2019-01-24T01:36:39.817Z,30.12
2019-01-24T01:39:10.080Z,24.00
2019-01-24T01:41:39.581Z,29.20
2019-01-24T01:44:09.052Z,30.27
2019-01-24T01:46:38.572Z,28.65
2019-01-24T01:49:08.092Z,28.02
2019-01-24T01:51:37.291Z,26.93
2019-01-24T01:54:06.777Z,29.35
2019-01-24T01:56:36.377Z,22.73
2019-01-24T01:59:05.925Z,34.10
2019-01-24T02:01:36.758Z,27.77
2019-01-24T02:04:06.273Z,28.92
2019-01-24T02:06:35.838Z,28.90
2019-01-24T02:09:09.521Z,34.30
2019-01-24T02:11:39.067Z,26.68
2019-01-24T02:14:08.689Z,25.97
2019-01-24T02:16:37.885Z,29.82
2019-01-24T02:19:07.447Z,28.52
2019-01-24T02:21:36.707Z,26.48
2019-01-24T02:24:06.309Z,30.10
2019-01-24T02:26:35.846Z,29.40
2019-01-24T02:29:05.418Z,27.55
2019-01-24T02:31:34.952Z,27.95
2019-01-24T02:34:04.539Z,32.75
2019-01-24T02:36:33.845Z,31.17
2019-01-24T02:39:04.034Z,31.55
2019-01-24T02:41:33.560Z,33.40
2019-01-24T02:44:03.119Z,34.85
2019-01-24T02:46:32.682Z,29.92
2019-01-24T02:49:02.160Z,29.57
2019-01-24T02:51:31.362Z,34.67
2019-01-24T02:54:00.917Z,30.02
2019-01-24T02:56:30.482Z,25.65
2019-01-24T02:59:00.098Z,39.53
2019-01-24T03:01:29.580Z,32.23
2019-01-24T03:03:59.023Z,32.25
2019-01-24T03:06:29.465Z,33.13
2019-01-24T03:08:58.947Z,29.65
2019-01-24T03:11:28.428Z,23.22
2019-01-24T03:13:58.045Z,31.05
2019-01-24T03:16:27.783Z,29.75
2019-01-24T03:18:57.385Z,29.92
2019-01-24T03:21:26.698Z,27.55
2019-01-24T03:23:56.159Z,29.55
2019-01-24T03:26:25.381Z,29.95
2019-01-24T03:28:54.937Z,27.35
2019-01-24T03:31:24.504Z,29.23
2019-01-24T03:33:54.044Z,22.67
2019-01-24T03:36:23.614Z,28.00
2019-01-24T03:38:53.149Z,32.75
2019-01-24T03:41:22.682Z,27.45
2019-01-24T03:43:52.202Z,24.92
2019-01-24T03:46:21.842Z,30.40
2019-01-24T03:48:51.162Z,24.43
2019-01-24T03:51:21.125Z,24.87
2019-01-24T03:53:50.669Z,24.12
2019-01-24T03:56:20.189Z,22.90
2019-01-24T03:58:51.294Z,28.62
2019-01-24T04:01:21.025Z,25.35
2019-01-24T04:03:50.560Z,30.30
2019-01-24T04:06:19.887Z,26.65
2019-01-24T04:08:49.361Z,30.12
2019-01-24T04:11:18.911Z,26.23
2019-01-24T04:13:48.812Z,35.03
2019-01-24T04:16:18.350Z,32.63
2019-01-24T04:18:47.973Z,33.67
2019-01-24T04:21:17.535Z,25.25
2019-01-24T04:23:47.000Z,30.30
2019-01-24T04:26:16.456Z,33.23
2019-01-24T04:28:46.049Z,29.65
2019-01-24T04:31:15.595Z,23.73
2019-01-24T04:33:44.871Z,26.50
2019-01-24T04:36:14.454Z,24.92
2019-01-24T04:38:44.081Z,32.67
2019-01-24T04:41:13.638Z,32.53
2019-01-24T04:43:43.209Z,33.90
2019-01-24T04:46:12.729Z,32.08
2019-01-24T04:48:42.201Z,33.92
2019-01-24T04:51:11.725Z,32.48
2019-01-24T04:53:41.269Z,33.25
2019-01-24T04:56:10.800Z,30.60
2019-01-24T04:58:40.353Z,35.30
2019-01-24T05:01:10.130Z,33.55
2019-01-24T05:03:39.660Z,30.48
2019-01-24T05:06:09.106Z,27.32
2019-01-24T05:08:38.588Z,30.60
2019-01-24T05:11:08.493Z,30.35
2019-01-24T05:13:38.121Z,28.00
2019-01-24T05:16:07.851Z,27.90
2019-01-24T05:18:37.423Z,27.50
2019-01-24T05:21:06.871Z,32.40
2019-01-24T05:23:36.506Z,32.53
2019-01-24T05:26:06.071Z,33.38
2019-01-24T05:28:35.581Z,29.35
2019-01-24T05:31:05.259Z,33.20
2019-01-24T05:33:35.422Z,24.25
2019-01-24T05:36:04.942Z,21.55
2019-01-24T05:38:34.996Z,25.15
2019-01-24T05:41:04.639Z,27.22
2019-01-24T05:43:34.246Z,27.73
2019-01-24T05:46:03.542Z,25.27
2019-01-24T05:48:33.132Z,27.22
2019-01-24T05:51:02.700Z,25.32
2019-01-24T05:53:32.840Z,28.62
2019-01-24T05:56:02.428Z,27.37
2019-01-24T05:58:31.686Z,29.67
2019-01-24T06:01:02.358Z,20.43
2019-01-24T06:03:31.892Z,19.67
2019-01-24T06:06:01.694Z,24.85
2019-01-24T06:08:31.249Z,22.52
2019-01-24T06:11:00.610Z,22.32
2019-01-24T06:13:30.249Z,22.58
2019-01-24T06:15:59.592Z,20.72
2019-01-24T06:18:29.138Z,26.20
2019-01-24T06:20:58.708Z,29.48
2019-01-24T06:23:28.597Z,24.25
2019-01-24T06:25:58.166Z,18.35
2019-01-24T06:28:27.729Z,26.10
2019-01-24T06:30:57.272Z,30.97
2019-01-24T06:33:26.554Z,30.23
2019-01-24T06:35:55.731Z,25.00
2019-01-24T06:38:25.510Z,22.30
2019-01-24T06:40:55.059Z,25.45
2019-01-24T06:43:24.610Z,23.73
2019-01-24T06:45:54.064Z,26.77
2019-01-24T06:48:24.902Z,26.15
2019-01-24T06:50:54.458Z,18.95
2019-01-24T06:53:24.009Z,29.40
2019-01-24T06:55:53.604Z,30.05
2019-01-24T06:58:29.825Z,22.62
2019-01-24T07:01:06.997Z,22.48
2019-01-24T07:03:37.154Z,21.45
2019-01-24T07:06:06.701Z,20.72
2019-01-24T07:08:36.242Z,22.15
2019-01-24T07:11:05.795Z,20.17
2019-01-24T07:13:38.119Z,23.20
2019-01-24T07:16:14.297Z,24.60
2019-01-24T07:18:43.883Z,22.93
2019-01-24T07:21:24.580Z,23.95
2019-01-24T07:24:03.561Z,21.73
2019-01-24T07:26:33.182Z,29.63
2019-01-24T07:29:02.458Z,26.68
2019-01-24T07:31:32.041Z,31.85
2019-01-24T07:34:01.588Z,26.55
2019-01-24T07:36:30.864Z,21.80
2019-01-24T07:39:02.467Z,28.30
2019-01-24T07:41:32.028Z,31.20
2019-01-24T07:44:01.269Z,26.77
2019-01-24T07:46:30.825Z,26.75
2019-01-24T07:49:00.376Z,30.65
2019-01-24T07:51:30.267Z,25.48
2019-01-24T07:53:59.958Z,26.37
2019-01-24T07:56:29.560Z,29.10
2019-01-24T07:58:59.102Z,27.93
2019-01-24T08:01:28.725Z,21.27
2019-01-24T08:03:58.308Z,23.45
2019-01-24T08:06:28.006Z,21.97
2019-01-24T08:08:57.478Z,21.25
2019-01-24T08:11:26.980Z,23.40
2019-01-24T08:13:56.566Z,25.10
2019-01-24T08:16:26.139Z,22.40
2019-01-24T08:18:55.730Z,20.72
2019-01-24T08:21:25.091Z,20.77
2019-01-24T08:23:54.609Z,22.50
2019-01-24T08:26:24.169Z,20.17
2019-01-24T08:28:58.142Z,27.62
2019-01-24T08:31:27.968Z,22.77
2019-01-24T08:33:57.647Z,23.10
2019-01-24T08:36:27.184Z,23.32
2019-01-24T08:38:56.740Z,25.55
2019-01-24T08:41:26.224Z,22.27
2019-01-24T08:43:55.714Z,23.40
2019-01-24T08:46:25.269Z,21.35
2019-01-24T08:48:54.884Z,26.90
2019-01-24T08:51:24.754Z,20.90
2019-01-24T08:53:54.245Z,20.82
2019-01-24T08:56:23.761Z,23.42
2019-01-24T08:58:53.350Z,19.62
2019-01-24T09:01:23.272Z,19.80
2019-01-24T09:03:52.914Z,20.12
2019-01-24T09:06:22.859Z,21.48
2019-01-24T09:08:52.429Z,21.70
2019-01-24T09:11:22.052Z,17.87
2019-01-24T09:13:51.696Z,13.45
2019-01-24T09:16:21.285Z,20.37
2019-01-24T09:18:50.752Z,17.30
2019-01-24T09:21:20.235Z,20.70
2019-01-24T09:23:49.789Z,19.77
2019-01-24T09:26:19.099Z,15.48
2019-01-24T09:28:48.650Z,18.87
2019-01-24T09:31:18.161Z,21.55
2019-01-24T09:33:47.797Z,21.02
2019-01-24T09:36:17.084Z,25.37
2019-01-24T09:38:46.639Z,21.48
2019-01-24T09:41:16.208Z,21.75
2019-01-24T09:43:45.715Z,20.27
2019-01-24T09:46:15.294Z,22.13
2019-01-24T09:48:44.844Z,18.65
2019-01-24T09:51:14.391Z,21.12
2019-01-24T09:53:43.879Z,22.13
2019-01-24T09:56:13.430Z,20.08
2019-01-24T09:58:43.045Z,22.90
2019-01-24T10:01:13.076Z,19.73
2019-01-24T10:03:42.601Z,20.02
2019-01-24T10:06:15.933Z,20.48
2019-01-24T10:08:45.602Z,20.72
2019-01-24T10:11:15.109Z,19.12
2019-01-24T10:13:44.700Z,19.87
2019-01-24T10:16:14.341Z,20.15
2019-01-24T10:18:44.215Z,22.45
2019-01-24T10:21:13.750Z,23.05
2019-01-24T10:23:43.333Z,23.60
2019-01-24T10:26:12.833Z,21.82
2019-01-24T10:28:42.401Z,17.23
2019-01-24T10:31:12.214Z,20.75
2019-01-24T10:33:41.770Z,21.95
2019-01-24T10:36:11.354Z,22.60
2019-01-24T10:38:40.984Z,19.12
2019-01-24T10:41:10.565Z,23.00
2019-01-24T10:43:40.130Z,24.45
2019-01-24T10:46:09.600Z,25.08
2019-01-24T10:48:39.060Z,20.05
2019-01-24T10:51:08.625Z,19.10
2019-01-24T10:53:38.071Z,21.95
2019-01-24T10:56:07.894Z,19.05
2019-01-24T10:58:37.908Z,19.27
2019-01-24T11:01:07.911Z,19.62
2019-01-24T11:03:37.505Z,22.02
2019-01-24T11:06:07.137Z,17.20
2019-01-24T11:08:36.673Z,17.98
2019-01-24T11:11:06.460Z,19.77
2019-01-24T11:13:36.146Z,19.65
2019-01-24T11:16:05.761Z,21.68
2019-01-24T11:18:35.416Z,20.40
2019-01-24T11:21:05.301Z,22.27
2019-01-24T11:23:34.864Z,20.90
2019-01-24T11:26:04.329Z,18.75
2019-01-24T11:28:34.485Z,20.32
2019-01-24T11:31:04.236Z,19.05
2019-01-24T11:33:34.057Z,17.70
2019-01-24T11:36:03.605Z,15.68
2019-01-24T11:38:33.511Z,18.45
2019-01-24T11:41:03.345Z,21.55
2019-01-24T11:43:32.885Z,19.25
2019-01-24T11:46:02.441Z,19.90
2019-01-24T11:48:32.069Z,22.47
2019-01-24T11:51:01.578Z,24.02
2019-01-24T11:53:31.173Z,19.65
2019-01-24T11:56:00.739Z,17.57
2019-01-24T11:58:30.425Z,17.17
2019-01-24T12:00:59.717Z,19.00
2019-01-24T12:03:29.347Z,22.58
2019-01-24T12:05:58.911Z,22.90
2019-01-24T12:08:28.421Z,17.10
2019-01-24T12:10:57.905Z,24.30
2019-01-24T12:13:42.577Z,13.95
2019-01-24T12:16:09.491Z,13.98
2019-01-24T12:18:39.200Z,20.37
2019-01-24T12:21:13.168Z,16.15
2019-01-24T12:23:42.873Z,19.65
2019-01-24T12:26:12.446Z,20.05
2019-01-24T12:28:41.940Z,17.65
2019-01-24T12:31:11.533Z,16.30
2019-01-24T12:33:41.400Z,19.57
2019-01-24T12:36:11.137Z,14.93
2019-01-24T12:38:40.744Z,16.85
2019-01-24T12:41:10.320Z,20.43
2019-01-24T12:43:39.877Z,19.57
2019-01-24T12:46:09.436Z,15.10
2019-01-24T12:48:38.913Z,22.07
2019-01-24T12:51:08.168Z,22.80
2019-01-24T12:53:37.972Z,21.52
2019-01-24T12:56:07.521Z,24.37
2019-01-24T12:58:36.989Z,23.62
2019-01-24T13:01:06.561Z,22.95
2019-01-24T13:03:36.181Z,20.20
2019-01-24T13:06:05.756Z,22.77
2019-01-24T13:08:35.249Z,22.52
2019-01-24T13:11:04.808Z,22.77
2019-01-24T13:13:34.396Z,18.92
2019-01-24T13:16:04.013Z,23.83
2019-01-24T13:18:33.540Z,18.77
2019-01-24T13:21:03.134Z,20.85
2019-01-24T13:23:32.325Z,17.60
2019-01-24T13:26:01.931Z,25.25
2019-01-24T13:28:31.461Z,21.02
2019-01-24T13:31:01.113Z,22.15
2019-01-24T13:33:30.653Z,24.52
2019-01-24T13:36:00.328Z,21.65
2019-01-24T13:38:29.834Z,19.25
2019-01-24T13:40:59.410Z,21.87
2019-01-24T13:43:29.017Z,20.95
2019-01-24T13:45:58.545Z,20.17
2019-01-24T13:48:28.093Z,22.67
2019-01-24T13:50:57.617Z,22.22
2019-01-24T13:53:27.144Z,23.52
2019-01-24T13:55:56.741Z,24.85
2019-01-24T13:58:26.302Z,21.45
2019-01-24T14:00:55.595Z,21.45
2019-01-24T14:03:51.469Z,19.62
2019-01-24T14:06:21.096Z,22.42
2019-01-24T14:08:50.602Z,16.00
2019-01-24T14:11:20.074Z,18.20
2019-01-24T14:13:49.618Z,25.40
2019-01-24T14:16:19.226Z,21.52
2019-01-24T14:18:48.906Z,22.93
2019-01-24T14:21:18.542Z,24.07
2019-01-24T14:23:49.189Z,21.82
2019-01-24T14:26:18.862Z,23.30
2019-01-24T14:28:48.429Z,27.02
2019-01-24T14:31:20.712Z,27.17
2019-01-24T14:33:50.425Z,23.27
2019-01-24T14:36:25.276Z,19.77
2019-01-24T14:38:51.423Z,21.15
2019-01-24T14:41:20.733Z,18.25
2019-01-24T14:43:50.119Z,23.20
2019-01-24T14:46:19.646Z,18.48
2019-01-24T14:48:49.213Z,19.57
2019-01-24T14:51:18.952Z,19.45
2019-01-24T14:53:48.445Z,25.55
2019-01-24T14:56:20.075Z,22.80
2019-01-24T14:58:49.712Z,20.17
2019-01-24T15:01:22.569Z,18.98
2019-01-24T15:03:52.215Z,19.77
2019-01-24T15:06:21.740Z,24.15
2019-01-24T15:08:51.310Z,21.52
2019-01-24T15:11:20.954Z,20.27
2019-01-24T15:13:50.597Z,21.48
2019-01-24T15:16:19.869Z,22.02
2019-01-24T15:18:49.465Z,21.60
2019-01-24T15:21:19.121Z,21.30
2019-01-24T15:23:48.929Z,23.92
2019-01-24T15:26:18.510Z,24.15
2019-01-24T15:28:48.374Z,23.00
2019-01-24T15:31:18.520Z,24.77
2019-01-24T15:33:48.042Z,23.00
2019-01-24T15:36:17.691Z,20.30
2019-01-24T15:38:59.528Z,19.80
2019-01-24T15:41:38.523Z,19.10
2019-01-24T15:44:17.463Z,19.85
2019-01-24T15:47:17.305Z,18.00
2019-01-24T15:49:55.945Z,21.10
2019-01-24T15:52:25.731Z,16.32
2019-01-24T15:54:56.978Z,15.25
2019-01-24T15:57:28.013Z,18.57
2019-01-24T15:59:58.026Z,17.73
2019-01-24T16:02:27.768Z,21.15
2019-01-24T16:05:00.756Z,20.17
2019-01-24T16:07:30.298Z,16.42
2019-01-24T16:09:59.813Z,15.35
2019-01-24T16:12:29.728Z,16.40
2019-01-24T16:15:00.353Z,16.07
2019-01-24T16:17:30.005Z,19.75
2019-01-24T16:20:04.236Z,15.25
2019-01-24T16:22:34.118Z,16.27
2019-01-24T16:25:04.263Z,15.88
2019-01-24T16:27:34.075Z,15.10
2019-01-24T16:30:05.116Z,16.40
2019-01-24T16:32:39.157Z,16.12
2019-01-24T16:35:12.640Z,14.70
2019-01-24T16:37:45.358Z,17.23
2019-01-24T16:40:20.599Z,15.78
2019-01-24T16:42:50.300Z,13.90
2019-01-24T16:45:21.771Z,17.23
2019-01-24T16:47:51.505Z,14.58
2019-01-24T16:50:22.128Z,17.07
2019-01-24T16:52:51.930Z,13.22
2019-01-24T16:55:21.595Z,17.12
2019-01-24T16:57:51.433Z,13.48
2019-01-24T17:00:32.453Z,15.63
2019-01-24T17:03:02.143Z,14.63
2019-01-24T17:05:31.877Z,14.68
2019-01-24T17:08:01.580Z,13.90
2019-01-24T17:10:31.168Z,16.73
2019-01-24T17:13:00.850Z,16.82
2019-01-24T17:15:30.691Z,14.33
2019-01-24T17:18:00.675Z,17.07
2019-01-24T17:20:30.283Z,17.23
2019-01-24T17:23:00.116Z,17.52
2019-01-24T17:25:37.317Z,15.05
2019-01-24T17:28:17.498Z,14.53
2019-01-24T17:30:51.016Z,14.65
2019-01-24T17:33:20.890Z,14.58
2019-01-24T17:35:50.507Z,14.95
2019-01-24T17:38:23.827Z,14.87
2019-01-24T17:40:52.118Z,16.55
2019-01-24T17:43:22.097Z,17.35
2019-01-24T17:45:51.882Z,13.53
2019-01-24T17:48:21.184Z,16.80
2019-01-24T17:50:53.297Z,14.93
2019-01-24T17:53:25.289Z,14.53
2019-01-24T17:55:55.225Z,17.80
2019-01-24T17:58:24.797Z,15.20
2019-01-24T18:00:54.474Z,17.17
2019-01-24T18:03:24.133Z,12.65
2019-01-24T18:05:53.807Z,13.13
2019-01-24T18:08:23.754Z,17.07
2019-01-24T18:10:54.391Z,19.10
2019-01-24T18:13:23.753Z,16.60
2019-01-24T18:15:53.403Z,18.35
2019-01-24T18:18:23.058Z,16.82
2019-01-24T18:20:52.754Z,14.90
2019-01-24T18:23:22.717Z,16.27
2019-01-24T18:25:52.331Z,16.02
2019-01-24T18:28:21.909Z,16.97
2019-01-24T18:30:51.406Z,14.05
2019-01-24T18:33:31.018Z,19.62
2019-01-24T18:36:00.709Z,15.70
2019-01-24T18:38:30.383Z,16.27
2019-01-24T18:41:00.012Z,20.05
2019-01-24T18:43:29.731Z,19.15
2019-01-24T18:46:01.130Z,14.70
2019-01-24T18:48:44.846Z,10.75
2019-01-24T18:51:14.457Z,11.55
2019-01-24T18:53:44.105Z,18.50
2019-01-24T18:56:13.686Z,17.02
2019-01-24T18:58:43.029Z,23.55
2019-01-24T19:01:12.605Z,19.95
2019-01-24T19:03:42.102Z,18.50
2019-01-24T19:06:11.813Z,20.00
2019-01-24T19:08:45.809Z,18.00
2019-01-24T19:11:12.585Z,18.60
2019-01-24T19:13:42.469Z,18.77
2019-01-24T19:16:12.121Z,17.75
2019-01-24T19:18:41.346Z,22.15
2019-01-24T19:21:11.254Z,17.82
2019-01-24T19:23:41.000Z,18.48
2019-01-24T19:26:11.325Z,20.68
2019-01-24T19:28:41.074Z,21.23
2019-01-24T19:31:10.794Z,19.07
2019-01-24T19:33:42.920Z,19.00
2019-01-24T19:36:12.591Z,20.37
2019-01-24T19:38:42.269Z,19.50
2019-01-24T19:41:12.115Z,18.60
2019-01-24T19:43:42.045Z,19.75
2019-01-24T19:46:11.778Z,21.48
2019-01-24T19:48:41.393Z,19.90
2019-01-24T19:51:12.271Z,21.90
2019-01-24T19:53:43.150Z,23.07
2019-01-24T19:56:12.885Z,20.57
2019-01-24T19:58:42.634Z,19.85
2019-01-24T20:01:12.507Z,23.18
2019-01-24T20:03:42.582Z,19.77
2019-01-24T20:06:12.189Z,18.73
2019-01-24T20:08:41.988Z,21.62
2019-01-24T20:11:13.566Z,22.70
2019-01-24T20:13:43.449Z,18.60
2019-01-24T20:16:13.047Z,17.40
2019-01-24T20:18:44.777Z,20.30
2019-01-24T20:21:14.399Z,22.37
2019-01-24T20:23:50.222Z,19.82
2019-01-24T20:26:19.873Z,23.80
2019-01-24T20:28:49.670Z,19.42
2019-01-24T20:31:19.202Z,20.32
2019-01-24T20:33:48.765Z,17.12
2019-01-24T20:36:18.296Z,19.87
2019-01-24T20:38:47.850Z,21.55
2019-01-24T20:41:20.562Z,22.58
2019-01-24T20:43:50.215Z,21.65
2019-01-24T20:46:24.236Z,19.85
2019-01-24T20:48:51.436Z,20.20
2019-01-24T20:51:24.220Z,25.17
2019-01-24T20:53:56.126Z,18.98
2019-01-24T20:56:25.996Z,21.52
2019-01-24T20:58:55.817Z,19.10
2019-01-24T21:01:25.729Z,18.50
2019-01-24T21:03:55.677Z,16.90
2019-01-24T21:06:25.293Z,22.87
2019-01-24T21:08:54.909Z,18.65
2019-01-24T21:11:24.495Z,17.87
2019-01-24T21:13:54.452Z,16.82
2019-01-24T21:16:24.091Z,20.95
2019-01-24T21:18:53.767Z,21.52
2019-01-24T21:21:23.432Z,23.00
2019-01-24T21:23:53.073Z,17.82
2019-01-24T21:26:24.366Z,22.77
2019-01-24T21:28:53.949Z,21.07
2019-01-24T21:31:23.629Z,23.50
2019-01-24T21:33:53.261Z,22.25
2019-01-24T21:36:22.783Z,22.40
2019-01-24T21:38:52.433Z,22.37
2019-01-24T21:41:22.468Z,20.20
2019-01-24T21:43:55.415Z,19.67
2019-01-24T21:46:25.036Z,21.35
2019-01-24T21:48:55.740Z,22.07
2019-01-24T21:51:25.013Z,19.50
2019-01-24T21:53:54.500Z,20.32
2019-01-24T21:56:24.132Z,20.25
2019-01-24T21:58:53.740Z,19.52
2019-01-24T22:01:23.325Z,22.32
2019-01-24T22:03:52.948Z,20.30
2019-01-24T22:06:22.953Z,20.97
2019-01-24T22:08:52.722Z,21.73
2019-01-24T22:11:22.595Z,22.15
2019-01-24T22:13:52.209Z,21.65
2019-01-24T22:16:21.748Z,21.15
2019-01-24T22:18:51.300Z,21.42
2019-01-24T22:21:20.906Z,23.35
2019-01-24T22:23:50.477Z,25.00
2019-01-24T22:26:20.077Z,17.62
2019-01-24T22:28:49.656Z,20.72
2019-01-24T22:31:19.258Z,23.42
2019-01-24T22:33:48.874Z,20.23
2019-01-24T22:36:18.273Z,21.65
2019-01-24T22:38:47.639Z,22.37
2019-01-24T22:41:16.845Z,26.77
2019-01-24T22:43:46.434Z,24.20
2019-01-24T22:46:16.405Z,20.37
2019-01-24T22:48:46.077Z,24.40
2019-01-24T22:51:16.083Z,23.00
2019-01-24T22:53:45.816Z,24.82
2019-01-24T22:56:15.412Z,22.22
2019-01-24T22:58:45.008Z,22.87
2019-01-24T23:01:49.760Z,21.17
2019-01-24T23:04:21.724Z,21.00
2019-01-24T23:06:51.593Z,23.45
2019-01-24T23:09:21.165Z,21.65
2019-01-24T23:11:50.933Z,20.88
2019-01-24T23:14:20.482Z,25.90
2019-01-24T23:16:50.295Z,21.73
2019-01-24T23:19:19.906Z,23.67
2019-01-24T23:21:49.561Z,22.55
2019-01-24T23:24:19.307Z,19.02
2019-01-24T23:26:48.974Z,21.60
2019-01-24T23:29:18.544Z,21.82
2019-01-24T23:31:48.149Z,22.73
2019-01-24T23:34:17.750Z,23.25
2019-01-24T23:36:47.254Z,22.07
2019-01-24T23:39:16.820Z,24.98
2019-01-24T23:41:46.405Z,25.30
2019-01-24T23:44:15.704Z,23.13
2019-01-24T23:46:45.502Z,18.77
2019-01-24T23:49:15.081Z,23.45
2019-01-24T23:51:44.541Z,21.45
2019-01-24T23:54:14.160Z,22.42
2019-01-24T23:56:43.436Z,23.57
2019-01-24T23:59:13.117Z,21.45
